createdAt,value
2019-05-04T00:00:55.075Z,56.70
2019-05-04T00:01:55.220Z,60.10
2019-05-04T00:02:55.057Z,59.60
2019-05-04T00:03:55.048Z,59.80
2019-05-04T00:04:55.589Z,62.60
2019-05-04T00:05:55.043Z,63.00
2019-05-04T00:06:55.466Z,62.70
2019-05-04T00:07:55.151Z,62.30
2019-05-04T00:08:55.129Z,63.10
2019-05-04T00:09:55.140Z,65.00
2019-05-04T00:10:55.529Z,68.00
2019-05-04T00:11:55.686Z,66.90
2019-05-04T00:12:54.998Z,69.20
2019-05-04T00:13:55.011Z,66.90
2019-05-04T00:14:55.005Z,65.70
2019-05-04T00:15:54.997Z,67.70
2019-05-04T00:16:58.174Z,67.50
2019-05-04T00:17:55.381Z,66.80
2019-05-04T00:18:55.194Z,68.30
2019-05-04T00:19:55.072Z,69.30
2019-05-04T00:20:56.738Z,70.80
2019-05-04T00:21:54.953Z,69.80
2019-05-04T00:22:55.698Z,70.70
2019-05-04T00:23:55.189Z,70.60
2019-05-04T00:24:55.646Z,71.90
2019-05-04T00:25:54.999Z,72.80
2019-05-04T00:26:55.270Z,72.10
2019-05-04T00:27:55.225Z,69.80
2019-05-04T00:28:55.270Z,66.60
2019-05-04T00:29:55.042Z,69.90
2019-05-04T00:30:54.898Z,69.40
2019-05-04T00:31:54.941Z,69.50
2019-05-04T00:32:54.877Z,69.90
2019-05-04T00:33:54.932Z,67.80
2019-05-04T00:34:55.362Z,69.10
2019-05-04T00:35:55.002Z,67.80
2019-05-04T00:37:02.197Z,67.20
2019-05-04T00:37:54.977Z,64.60
2019-05-04T00:38:54.902Z,67.20
2019-05-04T00:39:54.938Z,67.40
2019-05-04T00:40:55.760Z,67.70
2019-05-04T00:41:55.036Z,68.70
2019-05-04T00:42:55.372Z,65.80
2019-05-04T00:43:54.873Z,66.30
2019-05-04T00:44:55.138Z,67.00
2019-05-04T00:45:54.826Z,67.00
2019-05-04T00:46:55.247Z,65.70
2019-05-04T00:47:55.272Z,67.20
2019-05-04T00:48:55.278Z,66.60
2019-05-04T00:49:55.186Z,69.50
2019-05-04T00:50:55.080Z,66.00
2019-05-04T00:51:54.875Z,67.20
2019-05-04T00:52:55.391Z,67.40
2019-05-04T00:53:54.865Z,66.30
2019-05-04T00:54:55.071Z,67.00
2019-05-04T00:55:54.830Z,68.30
2019-05-04T00:56:55.583Z,71.30
2019-05-04T00:57:55.538Z,69.40
2019-05-04T00:58:55.491Z,69.80
2019-05-04T00:59:55.150Z,68.70
2019-05-04T01:00:55.206Z,69.20
2019-05-04T01:01:55.164Z,68.40
2019-05-04T01:02:55.142Z,69.50
2019-05-04T01:03:56.144Z,71.80
2019-05-04T01:04:55.041Z,71.60
2019-05-04T01:05:55.086Z,73.70
2019-05-04T01:06:55.359Z,72.20
2019-05-04T01:07:54.983Z,72.70
2019-05-04T01:08:55.057Z,70.90
2019-05-04T01:09:55.170Z,72.30
2019-05-04T01:10:55.209Z,72.80
2019-05-04T01:11:55.217Z,70.10
2019-05-04T01:12:54.810Z,70.60
2019-05-04T01:13:55.220Z,69.70
2019-05-04T01:14:55.245Z,70.90
2019-05-04T01:15:55.152Z,71.00
2019-05-04T01:16:55.033Z,71.00
2019-05-04T01:17:54.681Z,70.20
2019-05-04T01:18:55.026Z,72.00
2019-05-04T01:19:55.164Z,71.70
2019-05-04T01:20:55.327Z,71.10
2019-05-04T01:21:55.346Z,71.80
2019-05-04T01:22:54.833Z,72.40
2019-05-04T01:23:55.437Z,72.30
2019-05-04T01:24:55.231Z,70.20
2019-05-04T01:25:55.629Z,71.90
2019-05-04T01:26:55.013Z,73.40
2019-05-04T01:27:55.216Z,74.90
2019-05-04T01:28:55.620Z,72.20
2019-05-04T01:29:55.278Z,72.10
2019-05-04T01:30:55.368Z,73.60
2019-05-04T01:31:55.108Z,72.60
2019-05-04T01:32:54.859Z,72.60
2019-05-04T01:33:54.826Z,73.20
2019-05-04T01:34:54.622Z,73.30
2019-05-04T01:35:54.530Z,73.80
2019-05-04T01:36:55.769Z,74.70
2019-05-04T01:37:56.452Z,75.70
2019-05-04T01:38:55.444Z,72.40
2019-05-04T01:39:55.186Z,74.70
2019-05-04T01:40:55.194Z,75.00
2019-05-04T01:41:54.562Z,72.30
2019-05-04T01:42:55.526Z,72.00
2019-05-04T01:43:54.693Z,70.20
2019-05-04T01:44:54.845Z,70.40
2019-05-04T01:45:55.248Z,71.60
2019-05-04T01:46:54.624Z,72.30
2019-05-04T01:47:55.588Z,71.90
2019-05-04T01:48:55.916Z,71.60
2019-05-04T01:49:55.177Z,74.10
2019-05-04T01:50:55.163Z,76.10
2019-05-04T01:51:54.500Z,73.40
2019-05-04T01:52:55.722Z,73.80
2019-05-04T01:53:54.853Z,71.40
2019-05-04T01:54:54.985Z,73.60
2019-05-04T01:55:54.838Z,75.60
2019-05-04T01:56:54.868Z,77.00
2019-05-04T01:57:55.359Z,80.00
2019-05-04T01:58:54.915Z,77.80
2019-05-04T01:59:54.892Z,77.50
2019-05-04T02:00:56.237Z,76.60
2019-05-04T02:01:54.854Z,76.70
2019-05-04T02:02:54.574Z,77.10
2019-05-04T02:03:55.238Z,74.80
2019-05-04T02:04:55.557Z,74.50
2019-05-04T02:05:55.052Z,75.20
2019-05-04T02:06:55.429Z,73.80
2019-05-04T02:07:55.158Z,71.70
2019-05-04T02:08:54.618Z,72.70
2019-05-04T02:09:55.117Z,71.40
2019-05-04T02:10:54.490Z,72.00
2019-05-04T02:11:55.223Z,71.90
2019-05-04T02:12:55.361Z,73.00
2019-05-04T02:13:55.752Z,72.40
2019-05-04T02:14:54.913Z,72.60
2019-05-04T02:15:55.467Z,72.70
2019-05-04T02:16:54.661Z,73.70
2019-05-04T02:17:54.860Z,75.00
2019-05-04T02:18:54.761Z,71.90
2019-05-04T02:19:55.787Z,74.50
2019-05-04T02:20:55.203Z,74.40
2019-05-04T02:21:55.570Z,74.60
2019-05-04T02:22:55.719Z,70.70
2019-05-04T02:23:54.865Z,72.30
2019-05-04T02:24:55.164Z,68.00
2019-05-04T02:25:54.998Z,75.20
2019-05-04T02:26:54.664Z,70.50
2019-05-04T02:27:55.568Z,70.10
2019-05-04T02:28:55.272Z,70.30
2019-05-04T02:29:54.847Z,70.50
2019-05-04T02:30:56.981Z,70.70
2019-05-04T02:31:55.742Z,72.40
2019-05-04T02:32:55.601Z,72.50
2019-05-04T02:33:56.175Z,74.00
2019-05-04T02:34:55.557Z,71.50
2019-05-04T02:35:56.095Z,69.50
2019-05-04T02:36:56.107Z,70.40
2019-05-04T02:38:07.700Z,69.10
2019-05-04T02:38:55.748Z,69.30
2019-05-04T02:39:56.459Z,70.80
2019-05-04T02:40:58.066Z,72.60
2019-05-04T02:41:55.198Z,70.00
2019-05-04T02:42:56.554Z,70.80
2019-05-04T02:43:55.361Z,74.00
2019-05-04T02:44:56.015Z,73.00
2019-05-04T02:45:55.919Z,72.60
2019-05-04T02:46:54.864Z,69.40
2019-05-04T02:47:55.432Z,71.30
2019-05-04T02:48:56.446Z,72.80
2019-05-04T02:49:56.077Z,71.50
2019-05-04T02:50:56.035Z,73.20
2019-05-04T02:51:56.192Z,74.80
2019-05-04T02:52:56.148Z,74.50
2019-05-04T02:53:55.515Z,74.70
2019-05-04T02:54:56.139Z,73.30
2019-05-04T02:55:55.443Z,71.60
2019-05-04T02:56:55.988Z,70.90
2019-05-04T02:57:55.923Z,72.50
2019-05-04T02:58:55.544Z,74.00
2019-05-04T02:59:56.430Z,74.90
2019-05-04T03:00:56.176Z,73.20
2019-05-04T03:01:55.355Z,72.80
2019-05-04T03:02:55.873Z,73.60
2019-05-04T03:03:56.032Z,72.90
2019-05-04T03:04:56.105Z,69.80
2019-05-04T03:05:56.227Z,72.00
2019-05-04T03:06:56.234Z,70.80
2019-05-04T03:07:55.518Z,72.30
2019-05-04T03:08:55.762Z,73.80
2019-05-04T03:09:55.508Z,70.70
2019-05-04T03:10:55.335Z,71.60
2019-05-04T03:11:55.801Z,73.50
2019-05-04T03:12:56.239Z,74.90
2019-05-04T03:13:56.116Z,75.90
2019-05-04T03:14:54.979Z,75.20
2019-05-04T03:15:55.270Z,77.50
2019-05-04T03:16:56.118Z,78.50
2019-05-04T03:17:55.781Z,77.30
2019-05-04T03:18:55.308Z,76.60
2019-05-04T03:19:56.899Z,75.80
2019-05-04T03:20:56.026Z,76.10
2019-05-04T03:21:55.844Z,77.80
2019-05-04T03:22:55.922Z,79.90
2019-05-04T03:23:55.061Z,79.00
2019-05-04T03:24:56.362Z,78.90
2019-05-04T03:25:56.019Z,79.00
2019-05-04T03:26:55.352Z,79.70
2019-05-04T03:27:56.181Z,78.90
2019-05-04T03:28:55.214Z,77.50
2019-05-04T03:29:55.626Z,78.10
2019-05-04T03:30:58.011Z,75.30
2019-05-04T03:31:57.864Z,75.90
2019-05-04T03:32:57.989Z,79.30
2019-05-04T03:33:57.995Z,79.20
2019-05-04T03:35:11.394Z,79.20
2019-05-04T03:36:05.146Z,76.70
2019-05-04T03:36:58.409Z,76.00
2019-05-04T03:37:56.007Z,77.20
2019-05-04T03:38:57.323Z,77.20
2019-05-04T03:39:56.597Z,75.10
2019-05-04T03:40:55.248Z,75.50
2019-05-04T03:41:55.377Z,77.10
2019-05-04T03:42:55.534Z,76.20
2019-05-04T03:43:55.999Z,77.90
2019-05-04T03:44:55.963Z,78.60
2019-05-04T03:45:55.576Z,78.40
2019-05-04T03:46:56.092Z,77.20
2019-05-04T03:47:56.016Z,78.70
2019-05-04T03:48:56.320Z,79.10
2019-05-04T03:49:54.986Z,78.90
2019-05-04T03:50:55.369Z,76.70
2019-05-04T03:51:55.138Z,78.90
2019-05-04T03:52:55.671Z,79.40
2019-05-04T03:53:55.543Z,78.60
2019-05-04T03:54:55.077Z,77.00
2019-05-04T03:55:56.242Z,78.70
2019-05-04T03:56:55.998Z,80.50
2019-05-04T03:57:55.871Z,84.00
2019-05-04T03:58:55.799Z,81.50
2019-05-04T03:59:55.892Z,83.20
2019-05-04T04:00:55.437Z,81.30
2019-05-04T04:01:55.437Z,80.30
2019-05-04T04:02:56.069Z,81.80
2019-05-04T04:03:55.833Z,83.00
2019-05-04T04:04:55.551Z,84.10
2019-05-04T04:05:55.946Z,79.80
2019-05-04T04:06:55.521Z,83.10
2019-05-04T04:07:55.275Z,84.90
2019-05-04T04:09:05.550Z,83.10
2019-05-04T04:09:56.171Z,80.70
2019-05-04T04:10:56.185Z,81.20
2019-05-04T04:11:55.467Z,81.40
2019-05-04T04:12:55.742Z,80.00
2019-05-04T04:13:55.887Z,79.20
2019-05-04T04:14:55.135Z,76.90
2019-05-04T04:15:56.100Z,77.30
2019-05-04T04:16:55.454Z,79.90
2019-05-04T04:17:55.653Z,77.80
2019-05-04T04:18:56.040Z,79.40
2019-05-04T04:19:55.273Z,80.30
2019-05-04T04:20:55.333Z,79.40
2019-05-04T04:21:55.123Z,79.30
2019-05-04T04:22:55.411Z,81.90
2019-05-04T04:23:56.058Z,79.30
2019-05-04T04:24:56.238Z,84.40
2019-05-04T04:25:55.344Z,83.10
2019-05-04T04:26:56.055Z,79.50
2019-05-04T04:27:55.869Z,81.80
2019-05-04T04:28:55.712Z,82.60
2019-05-04T04:29:55.883Z,83.40
2019-05-04T04:30:55.526Z,85.10
2019-05-04T04:31:55.872Z,84.50
2019-05-04T04:32:55.820Z,84.80
2019-05-04T04:34:00.665Z,80.10
2019-05-04T04:34:55.537Z,82.40
2019-05-04T04:35:55.686Z,80.20
2019-05-04T04:36:56.183Z,84.40
2019-05-04T04:37:56.137Z,83.00
2019-05-04T04:38:56.187Z,83.70
2019-05-04T04:39:55.315Z,82.90
2019-05-04T04:40:55.565Z,82.10
2019-05-04T04:41:56.071Z,83.00
2019-05-04T04:42:55.965Z,83.90
2019-05-04T04:43:55.873Z,84.70
2019-05-04T04:44:55.618Z,83.80
2019-05-04T04:45:55.584Z,83.80
2019-05-04T04:46:55.613Z,81.00
2019-05-04T04:47:55.305Z,83.90
2019-05-04T04:48:55.739Z,84.80
2019-05-04T04:49:55.355Z,85.20
2019-05-04T04:50:55.525Z,83.30
2019-05-04T04:51:55.905Z,85.30
2019-05-04T04:52:56.144Z,83.70
2019-05-04T04:53:55.831Z,83.70
2019-05-04T04:54:55.636Z,86.00
2019-05-04T04:55:56.117Z,85.40
2019-05-04T04:56:55.433Z,84.90
2019-05-04T04:57:57.083Z,85.60
2019-05-04T04:58:55.589Z,86.40
2019-05-04T04:59:55.523Z,86.40
2019-05-04T05:00:55.836Z,88.90
2019-05-04T05:01:55.113Z,86.30
2019-05-04T05:02:55.166Z,85.40
2019-05-04T05:03:55.409Z,83.00
2019-05-04T05:04:55.043Z,82.90
2019-05-04T05:05:55.773Z,85.00
2019-05-04T05:06:55.532Z,81.80
2019-05-04T05:07:55.029Z,80.10
2019-05-04T05:08:55.571Z,78.80
2019-05-04T05:09:55.324Z,79.40
2019-05-04T05:10:55.787Z,80.20
2019-05-04T05:11:56.578Z,79.90
2019-05-04T05:12:55.236Z,81.30
2019-05-04T05:13:54.798Z,80.40
2019-05-04T05:14:54.927Z,81.50
2019-05-04T05:15:55.006Z,82.10
2019-05-04T05:16:55.037Z,83.60
2019-05-04T05:17:55.206Z,85.70
2019-05-04T05:18:54.180Z,83.50
2019-05-04T05:19:54.461Z,80.90
2019-05-04T05:20:54.924Z,82.70
2019-05-04T05:21:53.080Z,80.80
2019-05-04T05:22:54.708Z,80.70
2019-05-04T05:23:54.229Z,80.00
2019-05-04T05:24:54.860Z,80.30
2019-05-04T05:25:54.874Z,80.30
2019-05-04T05:26:54.401Z,80.20
2019-05-04T05:27:54.264Z,84.10
2019-05-04T05:28:55.244Z,81.00
2019-05-04T05:29:55.072Z,77.90
2019-05-04T05:30:54.262Z,80.10
2019-05-04T05:31:55.203Z,77.10
2019-05-04T05:32:54.909Z,80.80
2019-05-04T05:33:54.585Z,79.90
2019-05-04T05:34:54.452Z,79.40
2019-05-04T05:35:54.336Z,79.20
2019-05-04T05:36:55.195Z,73.20
2019-05-04T05:37:52.966Z,74.40
2019-05-04T05:38:55.639Z,73.20
2019-05-04T05:39:58.600Z,71.00
2019-05-04T05:40:54.422Z,68.00
2019-05-04T05:41:57.837Z,70.00
2019-05-04T05:42:54.700Z,69.60
2019-05-04T05:43:54.940Z,69.90
2019-05-04T05:44:54.781Z,69.50
2019-05-04T05:45:54.992Z,67.00
2019-05-04T05:46:54.465Z,67.70
2019-05-04T05:47:54.754Z,67.30
2019-05-04T05:48:54.514Z,68.60
2019-05-04T05:49:55.683Z,67.30
2019-05-04T05:50:54.571Z,66.40
2019-05-04T05:51:57.270Z,65.00
2019-05-04T05:52:52.867Z,64.90
2019-05-04T05:53:57.607Z,65.10
2019-05-04T05:54:54.467Z,63.50
2019-05-04T05:55:57.538Z,64.80
2019-05-04T05:56:54.920Z,62.10
2019-05-04T05:57:57.896Z,63.80
2019-05-04T05:58:53.930Z,63.00
2019-05-04T05:59:56.299Z,61.80
2019-05-04T06:00:54.786Z,62.80
2019-05-04T06:01:55.408Z,61.80
2019-05-04T06:02:55.458Z,61.40
2019-05-04T06:03:54.166Z,58.80
2019-05-04T06:04:53.444Z,59.10
2019-05-04T06:05:54.455Z,57.10
2019-05-04T06:06:54.800Z,58.80
2019-05-04T06:07:52.754Z,56.90
2019-05-04T06:08:54.140Z,57.50
2019-05-04T06:09:54.326Z,55.80
2019-05-04T06:10:56.276Z,56.00
2019-05-04T06:11:54.775Z,56.20
2019-05-04T06:12:55.800Z,59.00
2019-05-04T06:13:54.342Z,61.90
2019-05-04T06:14:54.639Z,59.90
2019-05-04T06:15:52.695Z,63.60
2019-05-04T06:16:58.468Z,65.10
2019-05-04T06:17:52.690Z,61.50
2019-05-04T06:18:57.280Z,65.90
2019-05-04T06:19:52.660Z,68.80
2019-05-04T06:20:54.759Z,66.40
2019-05-04T06:21:54.501Z,66.60
2019-05-04T06:22:57.059Z,66.10
2019-05-04T06:23:54.285Z,68.20
2019-05-04T06:24:55.837Z,68.90
2019-05-04T06:25:54.626Z,71.20
2019-05-04T06:26:54.390Z,69.40
2019-05-04T06:27:52.596Z,72.10
2019-05-04T06:28:54.657Z,72.10
2019-05-04T06:29:54.279Z,71.30
2019-05-04T06:30:54.523Z,72.20
2019-05-04T06:31:54.333Z,71.50
2019-05-04T06:32:52.572Z,68.50
2019-05-04T06:33:53.371Z,69.10
2019-05-04T06:34:54.854Z,68.20
2019-05-04T06:35:54.322Z,69.00
2019-05-04T06:36:52.552Z,70.90
2019-05-04T06:37:54.515Z,71.20
2019-05-04T06:38:52.527Z,71.70
2019-05-04T06:39:52.534Z,72.70
2019-05-04T06:40:55.351Z,72.90
2019-05-04T06:41:52.524Z,70.50
2019-05-04T06:42:54.890Z,70.10
2019-05-04T06:44:00.432Z,70.90
2019-05-04T06:44:56.163Z,68.80
2019-05-04T06:45:55.191Z,67.10
2019-05-04T06:46:52.480Z,68.30
2019-05-04T06:47:53.835Z,69.00
2019-05-04T06:48:52.465Z,69.60
2019-05-04T06:49:54.185Z,67.00
2019-05-04T06:50:52.463Z,68.90
2019-05-04T06:51:56.678Z,68.60
2019-05-04T06:52:52.423Z,68.70
2019-05-04T06:53:53.734Z,67.80
2019-05-04T06:54:53.494Z,66.30
2019-05-04T06:55:54.540Z,64.50
2019-05-04T06:56:54.422Z,63.20
2019-05-04T06:58:01.118Z,61.00
2019-05-04T06:59:00.892Z,61.70
2019-05-04T06:59:56.577Z,57.80
2019-05-04T07:00:52.361Z,53.00
2019-05-04T07:01:56.817Z,54.90
2019-05-04T07:02:52.341Z,48.80
2019-05-04T07:03:55.053Z,46.80
2019-05-04T07:04:52.382Z,45.40
2019-05-04T07:05:55.599Z,46.30
2019-05-04T07:06:52.340Z,43.40
2019-05-04T07:07:57.419Z,45.90
2019-05-04T07:08:54.648Z,44.00
2019-05-04T07:09:54.607Z,44.10
2019-05-04T07:11:12.409Z,43.30
2019-05-04T07:12:05.301Z,46.10
2019-05-04T07:12:52.273Z,46.30
2019-05-04T07:13:55.761Z,46.20
2019-05-04T07:14:52.290Z,45.90
2019-05-04T07:15:57.025Z,42.00
2019-05-04T07:16:54.501Z,41.10
2019-05-04T07:17:56.680Z,40.30
2019-05-04T07:18:52.263Z,38.70
2019-05-04T07:20:00.072Z,38.00
2019-05-04T07:20:52.246Z,38.50
2019-05-04T07:21:56.740Z,38.70
2019-05-04T07:22:54.123Z,37.70
2019-05-04T07:23:55.167Z,39.70
2019-05-04T07:24:52.205Z,38.70
2019-05-04T07:25:55.501Z,38.50
2019-05-04T07:26:52.193Z,40.80
2019-05-04T07:27:54.467Z,41.20
2019-05-04T07:28:52.188Z,40.30
2019-05-04T07:29:52.926Z,40.90
2019-05-04T07:30:54.211Z,41.30
2019-05-04T07:31:54.678Z,42.20
2019-05-04T07:32:52.137Z,42.80
2019-05-04T07:33:58.616Z,42.70
2019-05-04T07:34:54.470Z,44.10
2019-05-04T07:35:52.137Z,43.50
2019-05-04T07:36:52.108Z,43.00
2019-05-04T07:37:56.857Z,41.70
2019-05-04T07:38:56.663Z,40.60
2019-05-04T07:40:04.601Z,40.50
2019-05-04T07:40:52.101Z,41.70
2019-05-04T07:41:56.477Z,41.50
2019-05-04T07:42:53.806Z,42.00
2019-05-04T07:43:54.667Z,40.50
2019-05-04T07:44:54.208Z,42.50
2019-05-04T07:45:52.056Z,40.80
2019-05-04T07:46:52.038Z,42.30
2019-05-04T07:47:52.760Z,39.90
2019-05-04T07:48:53.375Z,39.10
2019-05-04T07:49:54.469Z,39.20
2019-05-04T07:50:52.062Z,38.80
2019-05-04T07:51:53.380Z,37.90
2019-05-04T07:52:51.997Z,36.50
2019-05-04T07:53:51.981Z,36.20
2019-05-04T07:54:51.988Z,37.20
2019-05-04T07:55:52.286Z,37.00
2019-05-04T07:56:53.676Z,36.70
2019-05-04T07:57:51.971Z,36.00
2019-05-04T07:58:51.961Z,36.00
2019-05-04T07:59:51.960Z,36.60
2019-05-04T08:00:51.931Z,35.80
2019-05-04T08:01:52.219Z,35.20
2019-05-04T08:02:51.974Z,34.90
2019-05-04T08:03:51.927Z,36.90
2019-05-04T08:04:51.892Z,36.30
2019-05-04T08:05:51.902Z,36.20
2019-05-04T08:06:57.559Z,37.10
2019-05-04T08:07:51.859Z,36.60
2019-05-04T08:08:57.832Z,36.00
2019-05-04T08:09:51.854Z,37.30
2019-05-04T08:10:51.865Z,36.70
2019-05-04T08:11:56.186Z,36.40
2019-05-04T08:13:00.412Z,37.40
2019-05-04T08:13:51.829Z,36.50
2019-05-04T08:15:08.776Z,35.30
2019-05-04T08:15:51.828Z,36.00
2019-05-04T08:16:55.648Z,36.80
2019-05-04T08:17:53.833Z,34.20
2019-05-04T08:18:58.703Z,36.40
2019-05-04T08:19:51.788Z,37.30
2019-05-04T08:20:59.204Z,36.20
2019-05-04T08:21:51.760Z,36.50
2019-05-04T08:22:59.075Z,37.60
2019-05-04T08:23:51.747Z,37.70
2019-05-04T08:24:51.770Z,36.70
2019-05-04T08:25:51.755Z,38.00
2019-05-04T08:26:51.737Z,37.90
2019-05-04T08:27:51.749Z,38.80
2019-05-04T08:28:52.209Z,37.10
2019-05-04T08:29:51.721Z,38.20
2019-05-04T08:30:51.690Z,37.10
2019-05-04T08:31:51.706Z,37.90
2019-05-04T08:32:51.702Z,37.00
2019-05-04T08:33:51.687Z,38.00
2019-05-04T08:34:51.976Z,36.10
2019-05-04T08:35:51.663Z,36.90
2019-05-04T08:36:53.022Z,36.50
2019-05-04T08:37:51.672Z,37.60
2019-05-04T08:38:51.651Z,39.20
2019-05-04T08:39:51.643Z,39.00
2019-05-04T08:40:51.925Z,41.20
2019-05-04T08:42:01.711Z,40.60
2019-05-04T08:42:51.616Z,40.10
2019-05-04T08:43:55.729Z,40.70
2019-05-04T08:44:51.607Z,42.60
2019-05-04T08:45:55.597Z,42.50
2019-05-04T08:46:51.597Z,43.10
2019-05-04T08:47:56.696Z,45.60
2019-05-04T08:48:51.571Z,47.80
2019-05-04T08:49:51.569Z,48.50
2019-05-04T08:50:51.568Z,48.90
2019-05-04T08:52:03.129Z,47.80
2019-05-04T08:52:53.578Z,49.00
2019-05-04T08:53:51.576Z,48.90
2019-05-04T08:54:56.231Z,49.70
2019-05-04T08:55:51.503Z,49.00
2019-05-04T08:56:53.160Z,49.00
2019-05-04T08:57:51.498Z,49.00
2019-05-04T08:58:51.481Z,49.60
2019-05-04T08:59:51.494Z,48.40
2019-05-04T09:00:51.527Z,48.20
2019-05-04T09:01:56.985Z,49.00
2019-05-04T09:02:51.448Z,49.60
2019-05-04T09:03:56.571Z,48.70
2019-05-04T09:04:51.433Z,49.30
2019-05-04T09:06:10.715Z,46.40
2019-05-04T09:07:01.457Z,46.80
2019-05-04T09:07:57.673Z,47.10
2019-05-04T09:09:03.822Z,45.80
2019-05-04T09:09:51.391Z,47.00
2019-05-04T09:11:06.344Z,47.00
2019-05-04T09:11:51.602Z,49.20
2019-05-04T09:12:51.382Z,47.60
2019-05-04T09:13:51.451Z,49.90
2019-05-04T09:14:51.350Z,49.60
2019-05-04T09:15:55.392Z,50.80
2019-05-04T09:16:51.607Z,50.20
2019-05-04T09:17:55.738Z,50.20
2019-05-04T09:18:51.335Z,49.60
2019-05-04T09:19:54.848Z,48.50
2019-05-04T09:20:51.346Z,47.60
2019-05-04T09:22:16.102Z,46.50
2019-05-04T09:22:51.667Z,48.60
2019-05-04T09:23:51.311Z,47.40
2019-05-04T09:24:52.034Z,48.80
2019-05-04T09:25:51.305Z,47.90
2019-05-04T09:26:51.283Z,48.40
2019-05-04T09:27:51.261Z,46.60
2019-05-04T09:28:52.518Z,46.80
2019-05-04T09:29:51.251Z,46.70
2019-05-04T09:30:54.443Z,48.40
2019-05-04T09:31:51.239Z,46.80
2019-05-04T09:32:51.229Z,48.90
2019-05-04T09:33:51.225Z,47.60
2019-05-04T09:34:51.518Z,47.80
2019-05-04T09:35:57.076Z,49.90
2019-05-04T09:36:52.850Z,48.30
2019-05-04T09:37:56.759Z,46.90
2019-05-04T09:38:51.188Z,48.90
2019-05-04T09:39:54.707Z,47.70
2019-05-04T09:40:52.023Z,47.20
2019-05-04T09:41:51.178Z,48.90
2019-05-04T09:42:51.194Z,48.00
2019-05-04T09:43:51.133Z,51.50
2019-05-04T09:44:51.141Z,49.90
2019-05-04T09:45:51.181Z,49.30
2019-05-04T09:46:51.472Z,50.40
2019-05-04T09:47:51.122Z,49.90
2019-05-04T09:48:51.146Z,48.60
2019-05-04T09:49:51.107Z,50.20
2019-05-04T09:50:51.106Z,50.40
2019-05-04T09:51:51.070Z,51.20
2019-05-04T09:52:51.420Z,51.10
2019-05-04T09:53:51.056Z,50.90
2019-05-04T09:54:55.340Z,51.60
2019-05-04T09:55:51.050Z,52.10
2019-05-04T09:56:58.248Z,50.50
2019-05-04T09:57:51.040Z,50.20
2019-05-04T09:58:51.328Z,49.70
2019-05-04T10:00:00.209Z,49.70
2019-05-04T10:00:51.013Z,49.80
2019-05-04T10:02:01.826Z,52.40
2019-05-04T10:02:50.996Z,52.30
2019-05-04T10:03:50.980Z,52.20
2019-05-04T10:04:51.431Z,53.20
2019-05-04T10:05:50.970Z,50.80
2019-05-04T10:06:50.948Z,53.20
2019-05-04T10:07:50.971Z,52.80
2019-05-04T10:08:50.936Z,52.00
2019-05-04T10:09:50.980Z,51.90
2019-05-04T10:10:51.233Z,51.10
2019-05-04T10:11:50.953Z,51.30
2019-05-04T10:12:50.917Z,49.90
2019-05-04T10:13:50.920Z,50.40
2019-05-04T10:14:50.910Z,51.00
2019-05-04T10:15:50.945Z,50.10
2019-05-04T10:16:51.191Z,51.10
2019-05-04T10:17:50.884Z,51.10
2019-05-04T10:18:50.899Z,51.50
2019-05-04T10:19:50.886Z,50.80
2019-05-04T10:20:50.883Z,51.10
2019-05-04T10:21:53.620Z,52.00
2019-05-04T10:22:50.831Z,52.20
2019-05-04T10:23:50.854Z,52.80
2019-05-04T10:24:50.823Z,52.00
2019-05-04T10:25:50.875Z,52.50
2019-05-04T10:26:51.329Z,52.00
2019-05-04T10:27:50.811Z,54.10
2019-05-04T10:28:52.098Z,51.90
2019-05-04T10:29:50.777Z,53.50
2019-05-04T10:30:50.833Z,51.10
2019-05-04T10:31:51.047Z,52.90
2019-05-04T10:32:50.812Z,54.00
2019-05-04T10:33:50.788Z,53.20
2019-05-04T10:34:50.757Z,52.60
2019-05-04T10:35:50.784Z,53.40
2019-05-04T10:36:50.997Z,53.70
2019-05-04T10:37:50.704Z,53.30
2019-05-04T10:38:50.731Z,53.90
2019-05-04T10:39:50.722Z,53.60
2019-05-04T10:40:50.703Z,54.80
2019-05-04T10:41:50.903Z,53.80
2019-05-04T10:43:00.437Z,54.70
2019-05-04T10:43:50.738Z,55.60
2019-05-04T10:44:50.681Z,55.60
2019-05-04T10:45:50.686Z,55.50
2019-05-04T10:46:51.164Z,57.30
2019-05-04T10:47:50.646Z,58.40
2019-05-04T10:48:50.651Z,58.00
2019-05-04T10:49:50.652Z,57.10
2019-05-04T10:50:50.634Z,54.20
2019-05-04T10:51:50.885Z,55.70
2019-05-04T10:52:50.621Z,53.10
2019-05-04T10:53:50.626Z,54.40
2019-05-04T10:54:50.588Z,52.20
2019-05-04T10:55:50.587Z,52.70
2019-05-04T10:56:50.903Z,54.20
2019-05-04T10:57:50.619Z,52.70
2019-05-04T10:58:50.562Z,53.70
2019-05-04T10:59:50.574Z,53.20
2019-05-04T11:00:50.617Z,53.10
2019-05-04T11:01:53.856Z,52.00
2019-05-04T11:02:50.542Z,49.40
2019-05-04T11:03:50.548Z,49.50
2019-05-04T11:04:50.547Z,49.20
2019-05-04T11:05:50.515Z,45.60
2019-05-04T11:06:50.933Z,46.80
2019-05-04T11:07:50.521Z,47.50
2019-05-04T11:08:50.501Z,44.90
2019-05-04T11:09:50.488Z,44.60
2019-05-04T11:10:50.490Z,41.90
2019-05-04T11:11:50.737Z,41.10
2019-05-04T11:12:50.471Z,40.60
2019-05-04T11:14:02.300Z,39.10
2019-05-04T11:14:50.479Z,39.00
2019-05-04T11:15:50.469Z,37.00
2019-05-04T11:16:50.745Z,37.90
2019-05-04T11:17:50.444Z,36.90
2019-05-04T11:18:50.482Z,36.70
2019-05-04T11:19:50.422Z,36.10
2019-05-04T11:20:50.440Z,34.40
2019-05-04T11:21:51.098Z,33.40
2019-05-04T11:22:50.409Z,33.00
2019-05-04T11:23:50.402Z,33.00
2019-05-04T11:24:50.409Z,34.40
2019-05-04T11:25:50.429Z,33.60
2019-05-04T11:26:50.689Z,34.10
2019-05-04T11:27:50.386Z,34.10
2019-05-04T11:28:50.357Z,35.10
2019-05-04T11:29:51.044Z,35.40
2019-05-04T11:30:50.353Z,34.80
2019-05-04T11:31:50.347Z,35.10
2019-05-04T11:32:50.600Z,33.40
2019-05-04T11:33:50.356Z,33.80
2019-05-04T11:34:50.341Z,33.40
2019-05-04T11:35:50.359Z,34.30
2019-05-04T11:36:50.333Z,34.10
2019-05-04T11:37:50.342Z,34.40
2019-05-04T11:38:50.616Z,33.10
2019-05-04T11:39:50.291Z,35.00
2019-05-04T11:40:50.288Z,34.80
2019-05-04T11:41:50.299Z,33.50
2019-05-04T11:42:50.291Z,33.20
2019-05-04T11:43:50.275Z,33.20
2019-05-04T11:44:50.588Z,32.90
2019-05-04T11:45:50.273Z,33.20
2019-05-04T11:46:57.423Z,32.30
2019-05-04T11:47:50.244Z,34.20
2019-05-04T11:48:50.251Z,34.00
2019-05-04T11:49:50.247Z,35.10
2019-05-04T11:50:50.596Z,36.10
2019-05-04T11:51:50.199Z,35.10
2019-05-04T11:52:50.199Z,33.10
2019-05-04T11:53:50.186Z,31.30
2019-05-04T11:54:50.193Z,33.40
2019-05-04T11:55:50.191Z,34.10
2019-05-04T11:56:50.440Z,34.00
2019-05-04T11:57:50.172Z,34.60
2019-05-04T11:58:50.180Z,33.40
2019-05-04T11:59:50.190Z,35.20
2019-05-04T12:00:50.170Z,34.30
2019-05-04T12:01:50.163Z,34.80
2019-05-04T12:02:58.688Z,35.80
2019-05-04T12:03:50.170Z,33.50
2019-05-04T12:04:50.157Z,34.40
2019-05-04T12:05:50.146Z,35.00
2019-05-04T12:06:50.146Z,35.10
2019-05-04T12:07:50.160Z,32.50
2019-05-04T12:08:50.399Z,33.00
2019-05-04T12:09:50.140Z,33.40
2019-05-04T12:10:50.133Z,34.80
2019-05-04T12:11:50.125Z,35.00
2019-05-04T12:12:50.101Z,32.80
2019-05-04T12:13:50.125Z,33.30
2019-05-04T12:14:51.831Z,34.10
2019-05-04T12:15:50.087Z,34.90
2019-05-04T12:16:50.090Z,33.00
2019-05-04T12:17:50.123Z,31.50
2019-05-04T12:18:50.105Z,31.00
2019-05-04T12:19:50.113Z,32.40
2019-05-04T12:20:50.435Z,33.40
2019-05-04T12:21:50.062Z,32.90
2019-05-04T12:22:50.070Z,31.40
2019-05-04T12:23:50.058Z,29.40
2019-05-04T12:24:50.059Z,31.60
2019-05-04T12:25:50.054Z,32.00
2019-05-04T12:26:50.316Z,32.40
2019-05-04T12:27:50.077Z,33.10
2019-05-04T12:28:50.036Z,32.20
2019-05-04T12:29:50.035Z,33.10
2019-05-04T12:30:50.038Z,30.60
2019-05-04T12:31:50.333Z,32.50
2019-05-04T12:32:49.989Z,29.70
2019-05-04T12:33:50.021Z,31.20
2019-05-04T12:34:50.015Z,30.70
2019-05-04T12:35:50.029Z,32.30
2019-05-04T12:36:50.340Z,33.80
2019-05-04T12:37:49.981Z,32.90
2019-05-04T12:38:50.044Z,29.40
2019-05-04T12:39:50.014Z,31.10
2019-05-04T12:40:49.984Z,28.70
2019-05-04T12:41:50.383Z,28.10
2019-05-04T12:42:49.989Z,31.00
2019-05-04T12:43:59.292Z,30.80
2019-05-04T12:44:49.971Z,29.60
2019-05-04T12:45:49.981Z,29.00
2019-05-04T12:46:50.260Z,30.60
2019-05-04T12:47:49.970Z,29.30
2019-05-04T12:48:49.968Z,27.90
2019-05-04T12:49:49.946Z,28.90
2019-05-04T12:50:49.943Z,30.50
2019-05-04T12:51:50.225Z,28.20
2019-05-04T12:52:49.957Z,29.80